Time;durP1;ratioP1;P1;durP2;ratioP2;P2;SDS_P1;SDS_P2;PMS_P1;PMS_P2;Temp;Humidity;BMP_temperature;BMP_pressure;BME280_temperature;BME280_humidity;BME280_pressure;Samples;Min_cycle;Max_cycle;Signal;HPM_P1;HPM_P2
2021/11/06 00:00:25;;;;;;;0.93;0.93;;;8.20;99.90;;;;;;5051906;28;20232;-71
2021/11/06 00:02:50;;;;;;;1.20;0.90;;;8.10;99.90;;;;;;5066398;28;20668;-71
2021/11/06 00:05:16;;;;;;;1.03;0.80;;;8.00;99.90;;;;;;5052542;28;20512;-71
2021/11/06 00:07:42;;;;;;;3.90;0.90;;;8.00;99.90;;;;;;5052592;28;20236;-71
2021/11/06 00:10:10;;;;;;;0.93;0.93;;;8.00;99.90;;;;;;5052319;28;20207;-71
2021/11/06 00:12:37;;;;;;;0.87;0.80;;;8.00;99.90;;;;;;5052460;28;20525;-71
2021/11/06 00:15:04;;;;;;;1.70;1.07;;;8.00;99.90;;;;;;5052280;28;20414;-71
2021/11/06 00:17:30;;;;;;;5.23;2.43;;;7.90;99.90;;;;;;5051259;28;20441;-71
2021/11/06 00:19:55;;;;;;;0.70;0.60;;;7.90;99.90;;;;;;5052473;28;20430;-71
2021/11/06 00:22:21;;;;;;;1.83;1.37;;;7.90;99.90;;;;;;5052541;28;20421;-71
2021/11/06 00:24:46;;;;;;;0.70;0.60;;;7.90;99.90;;;;;;5051983;28;20170;-71
2021/11/06 00:27:12;;;;;;;1.80;1.70;;;7.80;99.90;;;;;;5052406;28;20206;-71
2021/11/06 00:29:37;;;;;;;2.40;1.03;;;7.80;99.90;;;;;;5052284;28;20210;-71
2021/11/06 00:32:03;;;;;;;0.93;0.90;;;7.80;99.90;;;;;;5051513;28;20167;-71
2021/11/06 00:34:29;;;;;;;2.40;2.30;;;7.80;99.90;;;;;;5052447;28;20221;-71
2021/11/06 00:36:55;;;;;;;1.57;1.10;;;7.80;99.90;;;;;;5051851;28;20417;-71
2021/11/06 00:39:20;;;;;;;2.00;1.90;;;7.80;99.90;;;;;;5051638;28;20240;-71
2021/11/06 00:41:46;;;;;;;1.33;1.07;;;7.80;99.90;;;;;;5051637;28;20178;-71
2021/11/06 00:44:11;;;;;;;0.73;0.53;;;7.80;99.90;;;;;;5051730;28;20218;-71
2021/11/06 00:46:37;;;;;;;2.00;1.90;;;7.80;99.90;;;;;;5050998;28;20233;-71
2021/11/06 00:49:03;;;;;;;0.70;0.50;;;7.80;99.90;;;;;;5050642;28;20585;-71
2021/11/06 00:51:28;;;;;;;3.93;2.07;;;7.70;99.90;;;;;;5051762;28;20182;-71
2021/11/06 00:53:54;;;;;;;0.70;0.60;;;7.70;99.90;;;;;;5051730;28;21003;-71
2021/11/06 00:56:20;;;;;;;1.67;1.17;;;7.70;99.90;;;;;;5051092;28;20183;-71
2021/11/06 00:58:45;;;;;;;1.87;0.80;;;7.70;99.90;;;;;;5051715;28;20245;-71
2021/11/06 01:01:11;;;;;;;0.70;0.60;;;7.70;99.90;;;;;;5051886;28;20265;-71
2021/11/06 01:03:37;;;;;;;0.70;0.60;;;7.60;99.90;;;;;;5051847;28;20205;-71
2021/11/06 01:06:03;;;;;;;0.93;0.73;;;7.60;99.90;;;;;;5051526;28;20691;-71
2021/11/06 01:08:28;;;;;;;0.77;0.57;;;7.60;99.90;;;;;;5051066;28;20202;-71
2021/11/06 01:10:54;;;;;;;1.57;1.47;;;7.50;99.90;;;;;;5051628;28;20421;-71
2021/11/06 01:13:20;;;;;;;3.37;3.17;;;7.50;99.90;;;;;;5051806;28;20182;-71
2021/11/06 01:15:45;;;;;;;0.70;0.50;;;7.50;99.90;;;;;;5051625;28;20182;-71
2021/11/06 01:18:11;;;;;;;1.03;0.93;;;7.50;99.90;;;;;;5050358;28;20676;-71
2021/11/06 01:20:37;;;;;;;1.53;1.33;;;7.40;99.90;;;;;;5051740;28;20179;-71
2021/11/06 01:23:03;;;;;;;0.90;0.60;;;7.40;99.90;;;;;;5051717;28;20179;-71
2021/11/06 01:25:28;;;;;;;0.93;0.93;;;7.40;99.90;;;;;;5051306;28;20421;-71
2021/11/06 01:27:54;;;;;;;0.80;0.73;;;7.40;99.90;;;;;;5051542;28;20205;-71
2021/11/06 01:30:21;;;;;;;0.70;0.50;;;7.30;99.90;;;;;;5050463;28;20216;-71
2021/11/06 01:32:49;;;;;;;3.33;1.90;;;7.30;99.90;;;;;;5051649;28;20175;-71
2021/11/06 01:35:16;;;;;;;1.00;0.70;;;7.30;99.90;;;;;;5050808;28;20431;-71
2021/11/06 01:37:42;;;;;;;0.70;0.50;;;7.20;99.90;;;;;;5051706;28;20437;-71
2021/11/06 01:40:10;;;;;;;0.70;0.50;;;7.20;99.90;;;;;;5051872;28;20937;-71
2021/11/06 01:42:37;;;;;;;0.80;0.70;;;7.10;99.90;;;;;;5051233;28;20296;-71
2021/11/06 01:45:03;;;;;;;0.87;0.87;;;7.10;99.90;;;;;;5051283;28;20468;-71
2021/11/06 01:47:29;;;;;;;0.70;0.60;;;7.10;99.90;;;;;;5051433;28;20551;-71
2021/11/06 01:49:54;;;;;;;0.70;0.50;;;7.00;99.90;;;;;;5051228;28;20912;-71
2021/11/06 01:52:20;;;;;;;4.00;1.47;;;7.00;99.90;;;;;;5051629;28;20216;-71
2021/11/06 01:54:45;;;;;;;0.90;0.60;;;7.00;99.90;;;;;;5051406;28;20861;-71
2021/11/06 01:57:11;;;;;;;0.70;0.50;;;7.00;99.90;;;;;;5064754;28;20234;-71
2021/11/06 01:59:36;;;;;;;1.57;1.47;;;7.00;99.90;;;;;;5052716;28;20544;-71
2021/11/06 02:02:02;;;;;;;0.70;0.50;;;7.00;99.90;;;;;;5055071;28;20210;-71
2021/11/06 02:04:28;;;;;;;0.80;0.77;;;7.00;99.90;;;;;;5055047;28;20261;-71
2021/11/06 02:06:54;;;;;;;1.17;1.10;;;7.00;99.90;;;;;;5054915;28;20475;-71
2021/11/06 02:09:20;;;;;;;0.70;0.50;;;7.00;99.90;;;;;;5055225;28;20206;-71
2021/11/06 02:11:46;;;;;;;6.60;1.57;;;7.00;99.90;;;;;;5054975;28;20178;-71
2021/11/06 02:14:11;;;;;;;2.80;1.73;;;7.00;99.90;;;;;;5054264;28;20422;-71
2021/11/06 02:16:37;;;;;;;3.13;1.53;;;6.90;99.90;;;;;;5054262;28;20178;-71
2021/11/06 02:19:03;;;;;;;0.70;0.60;;;7.00;99.90;;;;;;5054414;28;20667;-71
2021/11/06 02:21:29;;;;;;;1.13;1.03;;;7.00;99.90;;;;;;5054326;28;20233;-71
2021/11/06 02:23:55;;;;;;;0.70;0.50;;;7.00;99.90;;;;;;5054539;28;20508;-71
2021/11/06 02:26:21;;;;;;;7.97;0.80;;;7.00;99.90;;;;;;5051158;28;20504;-71
2021/11/06 02:28:49;;;;;;;0.70;0.50;;;7.00;99.90;;;;;;5053892;28;20256;-71
2021/11/06 02:31:14;;;;;;;3.50;0.77;;;7.00;99.90;;;;;;5050690;28;21006;-71
2021/11/06 02:33:40;;;;;;;1.10;1.10;;;6.90;99.90;;;;;;5053663;28;20418;-71
2021/11/06 02:36:06;;;;;;;1.10;1.00;;;6.90;99.90;;;;;;5053783;28;20652;-71
2021/11/06 02:38:32;;;;;;;4.83;2.07;;;6.90;99.90;;;;;;5053805;28;20549;-71
2021/11/06 02:40:59;;;;;;;1.67;1.23;;;6.90;99.90;;;;;;5053780;28;20705;-71
2021/11/06 02:43:25;;;;;;;0.70;0.60;;;6.90;99.90;;;;;;5053864;28;20425;-71
2021/11/06 02:45:50;;;;;;;1.37;1.27;;;6.80;99.90;;;;;;5053787;28;20429;-71
2021/11/06 02:48:16;;;;;;;1.33;1.23;;;6.80;99.90;;;;;;5052207;28;20211;-71
2021/11/06 02:50:42;;;;;;;0.70;0.40;;;6.80;99.90;;;;;;5053773;28;20177;-71
2021/11/06 02:53:07;;;;;;;1.20;1.13;;;6.80;99.90;;;;;;5054056;28;20265;-71
2021/11/06 02:55:33;;;;;;;0.70;0.50;;;6.80;99.90;;;;;;5053276;28;20175;-71
2021/11/06 02:57:59;;;;;;;0.70;0.60;;;6.80;99.90;;;;;;5053492;28;20237;-71
2021/11/06 03:00:27;;;;;;;1.27;1.13;;;6.80;99.90;;;;;;5053573;28;20224;-71
2021/11/06 03:02:55;;;;;;;0.70;0.53;;;6.70;99.90;;;;;;5067778;28;20274;-71
2021/11/06 03:05:21;;;;;;;8.47;1.23;;;6.70;99.90;;;;;;5037588;28;20452;-71
2021/11/06 03:07:47;;;;;;;0.90;0.70;;;6.70;99.90;;;;;;5067521;28;20843;-71
2021/11/06 03:10:13;;;;;;;0.70;0.70;;;6.70;99.90;;;;;;5052864;28;20202;-71
2021/11/06 03:12:40;;;;;;;0.80;0.70;;;6.70;99.90;;;;;;5053392;28;20178;-71
2021/11/06 03:15:07;;;;;;;0.70;0.50;;;6.70;99.90;;;;;;5053159;28;20593;-71
2021/11/06 03:17:33;;;;;;;0.70;0.50;;;6.60;99.90;;;;;;5051586;28;20483;-71
2021/11/06 03:19:58;;;;;;;0.90;0.70;;;6.70;99.90;;;;;;5053128;28;20429;-71
2021/11/06 03:22:24;;;;;;;0.70;0.50;;;6.60;99.90;;;;;;5052184;28;20179;-71
2021/11/06 03:24:49;;;;;;;2.60;0.87;;;6.60;99.90;;;;;;5051898;28;20221;-71
2021/11/06 03:27:15;;;;;;;1.63;1.53;;;6.60;99.90;;;;;;5052823;28;20199;-71
2021/11/06 03:29:41;;;;;;;0.97;0.97;;;6.60;99.90;;;;;;5053385;28;20229;-71
2021/11/06 03:32:08;;;;;;;1.30;1.20;;;6.60;99.90;;;;;;5051892;28;20451;-71
2021/11/06 03:34:35;;;;;;;0.70;0.60;;;6.60;99.90;;;;;;5052728;28;20615;-71
2021/11/06 03:37:01;;;;;;;0.70;0.57;;;6.60;99.90;;;;;;5052923;28;20806;-71
2021/11/06 03:39:27;;;;;;;2.70;2.50;;;6.60;99.90;;;;;;5052909;28;20526;-71
2021/11/06 03:41:53;;;;;;;0.80;0.70;;;6.60;99.90;;;;;;5051851;28;20516;-71
2021/11/06 03:44:18;;;;;;;0.70;0.50;;;6.60;99.90;;;;;;5052881;28;20421;-71
2021/11/06 03:46:44;;;;;;;2.80;1.83;;;6.50;99.90;;;;;;5052636;28;20257;-71
2021/11/06 03:49:09;;;;;;;0.80;0.50;;;6.50;99.90;;;;;;5052700;28;20230;-72
2021/11/06 03:51:35;;;;;;;0.70;0.70;;;6.40;99.90;;;;;;5052722;28;20228;-71
2021/11/06 03:54:01;;;;;;;0.80;0.60;;;6.40;99.90;;;;;;5052679;28;20194;-71
2021/11/06 03:56:27;;;;;;;0.97;0.97;;;6.40;99.90;;;;;;5052161;28;20460;-71
2021/11/06 03:58:53;;;;;;;0.70;0.50;;;6.30;99.90;;;;;;5052651;28;20202;-71
2021/11/06 04:01:19;;;;;;;2.17;1.27;;;6.30;99.90;;;;;;5052474;28;20507;-71
2021/11/06 04:03:45;;;;;;;2.30;2.10;;;6.20;99.90;;;;;;5051318;28;20433;-71
2021/11/06 04:06:11;;;;;;;0.70;0.60;;;6.30;99.90;;;;;;5052029;28;20830;-72
2021/11/06 04:08:37;;;;;;;0.70;0.57;;;6.20;99.90;;;;;;5052411;28;20498;-72
2021/11/06 04:11:03;;;;;;;0.70;0.50;;;6.20;99.90;;;;;;5052485;28;20431;-72
2021/11/06 04:13:29;;;;;;;0.70;0.50;;;6.20;99.90;;;;;;5052166;28;20546;-72
2021/11/06 04:15:54;;;;;;;0.70;0.50;;;6.20;99.90;;;;;;5051651;28;20417;-72
2021/11/06 04:18:20;;;;;;;0.70;0.50;;;6.20;99.90;;;;;;5051968;28;20601;-72
2021/11/06 04:20:46;;;;;;;0.70;0.40;;;6.20;99.90;;;;;;5052164;28;20169;-71
2021/11/06 04:23:12;;;;;;;1.57;1.27;;;6.20;99.90;;;;;;5051390;28;20361;-71
2021/11/06 04:25:37;;;;;;;1.13;1.03;;;6.30;99.90;;;;;;5052129;28;20434;-71
2021/11/06 04:28:03;;;;;;;8.03;2.00;;;6.30;99.90;;;;;;5051997;28;20969;-71
2021/11/06 04:30:29;;;;;;;0.70;0.50;;;6.30;99.90;;;;;;5051922;28;20163;-72
2021/11/06 04:32:55;;;;;;;1.70;1.50;;;6.30;99.90;;;;;;5040865;28;20540;-71
2021/11/06 04:35:21;;;;;;;1.67;0.67;;;6.30;99.90;;;;;;5051661;28;20406;-72
2021/11/06 04:37:46;;;;;;;0.73;0.67;;;6.30;99.90;;;;;;5051770;28;20190;-72
2021/11/06 04:40:13;;;;;;;0.70;0.50;;;6.40;99.90;;;;;;5056933;28;20422;-71
2021/11/06 04:42:41;;;;;;;0.70;0.43;;;6.40;99.90;;;;;;5048380;28;20167;-71
2021/11/06 04:45:08;;;;;;;0.90;0.90;;;6.40;99.90;;;;;;5051352;28;20417;-72
2021/11/06 04:47:33;;;;;;;1.07;1.00;;;6.40;99.90;;;;;;5051897;28;20437;-71
2021/11/06 04:49:59;;;;;;;0.70;0.60;;;6.30;99.90;;;;;;5051360;28;20457;-72
2021/11/06 04:52:25;;;;;;;3.23;2.97;;;6.30;99.90;;;;;;5051802;28;20194;-72
2021/11/06 04:54:51;;;;;;;0.83;0.70;;;6.30;99.90;;;;;;5051502;28;20413;-73
2021/11/06 04:57:17;;;;;;;0.70;0.50;;;6.30;99.90;;;;;;5051345;28;20285;-71
2021/11/06 04:59:42;;;;;;;0.70;0.70;;;6.20;99.90;;;;;;5051761;28;20786;-71
2021/11/06 05:02:08;;;;;;;1.80;1.70;;;6.20;99.90;;;;;;5051482;28;20179;-72
2021/11/06 05:04:33;;;;;;;2.20;2.07;;;6.10;99.90;;;;;;5051614;28;20250;-72
2021/11/06 05:06:59;;;;;;;0.70;0.50;;;6.10;99.90;;;;;;5051354;28;20195;-72
2021/11/06 05:09:25;;;;;;;0.70;0.50;;;6.00;99.90;;;;;;5050587;28;20221;-72
2021/11/06 05:11:50;;;;;;;3.63;0.77;;;6.00;99.90;;;;;;5051603;28;20258;-71
2021/11/06 05:14:17;;;;;;;1.57;0.90;;;5.90;99.90;;;;;;5051511;28;20170;-72
2021/11/06 05:16:43;;;;;;;2.73;1.47;;;5.80;99.90;;;;;;5050953;28;20169;-72
2021/11/06 05:19:08;;;;;;;0.70;0.60;;;5.80;99.90;;;;;;5051489;28;20847;-72
2021/11/06 05:21:37;;;;;;;2.23;1.20;;;5.70;99.90;;;;;;5051246;28;20178;-72
2021/11/06 05:24:04;;;;;;;0.80;0.70;;;5.70;99.90;;;;;;5051466;28;20205;-71
2021/11/06 05:26:30;;;;;;;1.57;1.47;;;5.60;99.90;;;;;;5051214;28;20460;-71
2021/11/06 05:28:56;;;;;;;0.70;0.50;;;5.50;99.90;;;;;;5051119;28;20480;-72
2021/11/06 05:31:22;;;;;;;0.80;0.60;;;5.40;99.90;;;;;;5035723;28;20656;-71
2021/11/06 05:33:47;;;;;;;1.77;0.90;;;5.30;99.90;;;;;;5053221;28;20452;-70
2021/11/06 05:36:13;;;;;;;0.70;0.60;;;5.30;99.90;;;;;;5055121;28;20417;-71
2021/11/06 05:38:39;;;;;;;0.70;0.50;;;5.20;99.90;;;;;;5055231;28;20197;-71
2021/11/06 05:41:05;;;;;;;0.70;0.60;;;5.10;99.90;;;;;;5053832;28;20584;-71
2021/11/06 05:43:30;;;;;;;1.07;0.90;;;4.90;99.90;;;;;;5055074;28;20413;-71
2021/11/06 05:45:56;;;;;;;1.33;1.03;;;4.80;99.90;;;;;;5054721;28;20203;-72
2021/11/06 05:48:22;;;;;;;2.10;0.80;;;4.80;99.90;;;;;;5055715;28;20199;-71
2021/11/06 05:50:48;;;;;;;1.17;1.07;;;4.70;99.90;;;;;;5056075;28;20171;-71
2021/11/06 05:53:14;;;;;;;0.70;0.50;;;4.60;99.90;;;;;;5056442;28;21164;-72
2021/11/06 05:55:39;;;;;;;0.80;0.60;;;4.60;99.90;;;;;;5054603;28;20181;-72
2021/11/06 05:58:05;;;;;;;0.70;0.50;;;4.60;99.90;;;;;;5054749;28;20214;-71
2021/11/06 06:00:30;;;;;;;2.33;1.40;;;4.60;99.90;;;;;;5056215;28;20229;-71
2021/11/06 06:02:56;;;;;;;0.80;0.70;;;4.40;99.90;;;;;;5056378;28;20167;-71
2021/11/06 06:05:22;;;;;;;0.70;0.50;;;4.40;99.90;;;;;;5055827;28;20170;-71
2021/11/06 06:07:47;;;;;;;0.70;0.50;;;4.40;99.90;;;;;;5056668;28;20187;-71
2021/11/06 06:10:14;;;;;;;0.70;0.50;;;4.30;99.90;;;;;;5054897;28;20198;-71
2021/11/06 06:12:40;;;;;;;0.80;0.50;;;4.20;99.90;;;;;;5055448;28;20641;-71
2021/11/06 06:15:06;;;;;;;0.70;0.50;;;4.20;99.90;;;;;;5057018;28;20416;-71
2021/11/06 06:17:33;;;;;;;1.07;1.03;;;4.20;99.90;;;;;;5055364;28;20519;-71
2021/11/06 06:19:58;;;;;;;0.70;0.50;;;4.20;99.90;;;;;;5056674;28;20459;-71
2021/11/06 06:22:24;;;;;;;0.70;0.50;;;4.30;99.90;;;;;;5057115;28;20425;-71
2021/11/06 06:24:50;;;;;;;0.83;0.83;;;4.20;99.90;;;;;;5056252;28;20178;-71
2021/11/06 06:27:16;;;;;;;1.17;0.80;;;4.30;99.90;;;;;;5056453;28;20195;-73
2021/11/06 06:29:42;;;;;;;0.70;0.50;;;4.20;99.90;;;;;;5055110;28;20457;-71
2021/11/06 06:32:08;;;;;;;1.40;1.00;;;4.20;99.90;;;;;;5053140;28;20508;-71
2021/11/06 06:34:33;;;;;;;0.70;0.50;;;4.30;99.90;;;;;;5054448;28;20253;-71
2021/11/06 06:36:59;;;;;;;0.70;0.50;;;4.20;99.90;;;;;;5053686;28;20190;-71
2021/11/06 06:39:24;;;;;;;0.70;0.50;;;4.20;99.90;;;;;;5054249;28;20183;-71
2021/11/06 06:41:50;;;;;;;0.70;0.50;;;4.20;99.90;;;;;;5053846;28;20174;-71
2021/11/06 06:44:16;;;;;;;0.70;0.50;;;4.20;99.90;;;;;;5053655;28;20183;-71
2021/11/06 06:46:41;;;;;;;2.60;1.87;;;4.20;99.90;;;;;;5052829;28;20175;-71
2021/11/06 06:49:07;;;;;;;0.70;0.50;;;4.30;99.90;;;;;;5052671;28;20206;-72
2021/11/06 06:51:32;;;;;;;2.77;0.80;;;4.20;99.90;;;;;;5053890;28;20330;-71
2021/11/06 06:53:58;;;;;;;0.70;0.50;;;4.30;99.90;;;;;;5053440;28;20202;-72
2021/11/06 06:56:23;;;;;;;1.43;1.33;;;4.30;99.90;;;;;;5053424;28;20189;-71
2021/11/06 06:58:49;;;;;;;0.80;0.80;;;4.40;99.90;;;;;;5068766;28;20216;-72
2021/11/06 07:01:15;;;;;;;8.50;1.63;;;4.40;99.90;;;;;;5055146;28;20261;-71
2021/11/06 07:03:40;;;;;;;2.20;2.10;;;4.50;99.90;;;;;;5057028;28;20198;-71
2021/11/06 07:06:06;;;;;;;1.53;1.43;;;4.60;99.90;;;;;;5056658;28;20203;-72
2021/11/06 07:08:31;;;;;;;0.70;0.53;;;4.60;99.90;;;;;;5054957;28;20240;-72
2021/11/06 07:10:57;;;;;;;1.37;1.27;;;4.70;99.90;;;;;;5056779;28;20201;-72
2021/11/06 07:13:24;;;;;;;0.70;0.50;;;4.60;99.90;;;;;;5056807;28;20644;-72
2021/11/06 07:15:50;;;;;;;0.73;0.60;;;4.60;99.90;;;;;;5054805;28;20583;-72
2021/11/06 07:18:16;;;;;;;0.93;0.67;;;4.70;99.90;;;;;;5056155;28;20433;-72
2021/11/06 07:20:42;;;;;;;0.70;0.60;;;4.80;99.90;;;;;;5055640;28;20448;-72
2021/11/06 07:23:08;;;;;;;0.70;0.50;;;4.90;99.90;;;;;;5054402;28;20440;-72
2021/11/06 07:25:33;;;;;;;0.70;0.40;;;5.00;99.90;;;;;;5056542;28;20166;-71
2021/11/06 07:28:00;;;;;;;0.70;0.50;;;5.00;99.90;;;;;;5053547;28;20224;-71
2021/11/06 07:30:25;;;;;;;0.70;0.60;;;5.10;99.90;;;;;;5053505;28;20199;-71
2021/11/06 07:32:51;;;;;;;0.70;0.60;;;5.20;99.90;;;;;;5053256;28;20409;-71
2021/11/06 07:35:17;;;;;;;1.00;1.00;;;5.30;99.90;;;;;;5052530;28;20167;-71
2021/11/06 07:37:43;;;;;;;0.70;0.60;;;5.50;99.90;;;;;;5052006;28;20252;-71
2021/11/06 07:40:11;;;;;;;0.70;0.50;;;5.60;99.90;;;;;;5052740;28;20902;-71
2021/11/06 07:42:43;;;;;;;0.70;0.70;;;5.80;99.90;;;;;;5053143;28;20633;-71
2021/11/06 07:45:14;;;;;;;2.40;2.30;;;6.00;99.90;;;;;;5051494;28;20417;-71
2021/11/06 07:47:40;;;;;;;0.70;0.60;;;6.50;99.90;;;;;;5052999;28;20433;-71
2021/11/06 07:50:07;;;;;;;1.07;0.97;;;7.60;99.90;;;;;;5052547;28;20463;-71
2021/11/06 07:52:33;;;;;;;2.20;2.10;;;8.70;99.90;;;;;;5052505;28;20479;-71
2021/11/06 07:54:59;;;;;;;0.70;0.70;;;9.90;99.90;;;;;;5052354;28;20452;-72
2021/11/06 07:57:24;;;;;;;1.10;0.70;;;10.90;99.90;;;;;;5052538;28;20477;-72
2021/11/06 07:59:50;;;;;;;1.30;1.20;;;11.90;99.90;;;;;;5052943;28;20531;-72
2021/11/06 08:02:16;;;;;;;2.23;1.50;;;12.50;99.90;;;;;;5052600;28;20189;-72
2021/11/06 08:04:42;;;;;;;1.33;1.23;;;13.20;99.90;;;;;;5052465;28;20171;-72
2021/11/06 08:07:07;;;;;;;2.80;1.40;;;13.50;99.90;;;;;;5052068;28;20202;-72
2021/11/06 08:09:33;;;;;;;1.10;0.70;;;14.10;99.90;;;;;;5052403;28;20441;-72
2021/11/06 08:11:58;;;;;;;1.50;0.83;;;14.90;99.90;;;;;;5052516;28;20178;-72
2021/11/06 08:14:24;;;;;;;0.80;0.80;;;15.10;99.90;;;;;;5052613;28;20254;-72
2021/11/06 08:16:55;;;;;;;1.43;1.13;;;15.20;99.90;;;;;;5052097;28;20206;-73
2021/11/06 08:19:21;;;;;;;1.23;1.13;;;15.70;99.90;;;;;;5052529;28;20525;-70
2021/11/06 08:21:47;;;;;;;0.70;0.60;;;16.30;99.90;;;;;;5051900;28;20425;-71
2021/11/06 08:24:12;;;;;;;0.90;0.50;;;16.50;99.90;;;;;;5052288;28;20174;-71
2021/11/06 08:26:38;;;;;;;1.67;0.70;;;16.50;99.90;;;;;;5052090;28;20227;-71
2021/11/06 08:29:04;;;;;;;1.77;0.80;;;16.10;99.90;;;;;;5051910;28;20385;-71
2021/11/06 08:31:31;;;;;;;1.13;1.03;;;16.20;99.90;;;;;;5051817;28;20253;-71
2021/11/06 08:33:56;;;;;;;0.90;0.87;;;15.70;99.90;;;;;;5052064;28;20170;-72
2021/11/06 08:36:22;;;;;;;0.80;0.63;;;14.40;99.90;;;;;;5050090;28;20433;-71
2021/11/06 08:38:47;;;;;;;0.70;0.60;;;14.60;99.90;;;;;;5052089;28;20186;-71
2021/11/06 08:41:13;;;;;;;0.90;0.63;;;15.10;99.90;;;;;;5051811;28;20179;-71
2021/11/06 08:43:39;;;;;;;0.77;0.67;;;15.40;99.90;;;;;;5052085;28;20575;-72
2021/11/06 08:46:05;;;;;;;0.83;0.77;;;15.80;99.90;;;;;;5051436;28;20177;-72
2021/11/06 08:48:30;;;;;;;0.80;0.70;;;15.80;99.90;;;;;;5051783;28;20206;-69
2021/11/06 08:50:56;;;;;;;1.40;1.00;;;16.30;99.90;;;;;;5051881;28;20453;-69
2021/11/06 08:53:22;;;;;;;0.80;0.80;;;16.80;99.90;;;;;;5051736;28;20174;-70
2021/11/06 08:55:48;;;;;;;1.00;0.90;;;17.20;99.90;;;;;;5051406;28;20414;-69
2021/11/06 08:58:13;;;;;;;1.27;1.17;;;17.60;99.90;;;;;;5050973;28;20211;-70
2021/11/06 09:00:43;;;;;;;0.70;0.57;;;17.10;99.90;;;;;;5050028;28;20167;-69
2021/11/06 09:03:12;;;;;;;0.70;0.57;;;16.20;99.90;;;;;;5051591;28;20438;-69
2021/11/06 09:05:39;;;;;;;0.83;0.80;;;15.40;99.90;;;;;;5051228;28;20412;-69
2021/11/06 09:08:05;;;;;;;1.17;1.07;;;15.20;99.90;;;;;;5050908;28;20438;-69
2021/11/06 09:10:31;;;;;;;0.70;0.60;;;14.80;99.90;;;;;;5051497;28;20460;-69
2021/11/06 09:12:57;;;;;;;1.00;0.80;;;14.50;99.90;;;;;;5050270;28;20456;-69
2021/11/06 09:15:23;;;;;;;2.13;0.90;;;13.10;99.90;;;;;;5049826;28;20178;-69
2021/11/06 09:17:50;;;;;;;1.43;1.33;;;13.30;99.90;;;;;;5051411;28;20568;-69
2021/11/06 09:20:16;;;;;;;1.80;0.60;;;13.30;99.90;;;;;;5051236;28;20432;-69
2021/11/06 09:22:42;;;;;;;0.70;0.50;;;13.20;99.90;;;;;;5050174;28;20762;-69
2021/11/06 09:25:09;;;;;;;0.80;0.70;;;14.10;99.90;;;;;;5050959;28;20425;-69
2021/11/06 09:27:36;;;;;;;0.70;0.60;;;14.90;99.90;;;;;;5051951;28;20950;-69
2021/11/06 09:30:04;;;;;;;0.80;0.60;;;15.30;99.90;;;;;;5051575;28;20456;-69
2021/11/06 09:32:30;;;;;;;0.70;0.57;;;14.70;99.90;;;;;;5050881;28;20487;-69
2021/11/06 09:34:55;;;;;;;0.70;0.50;;;14.30;99.90;;;;;;5051008;28;20464;-69
2021/11/06 09:37:21;;;;;;;0.70;0.60;;;14.10;99.90;;;;;;5049008;28;20249;-69
2021/11/06 09:39:47;;;;;;;0.70;0.50;;;14.00;99.90;;;;;;5051515;28;20183;-69
2021/11/06 09:42:12;;;;;;;0.70;0.50;;;13.80;99.90;;;;;;5049554;28;20633;-69
2021/11/06 09:44:38;;;;;;;0.80;0.70;;;14.20;99.90;;;;;;5051441;28;20216;-69
2021/11/06 09:47:10;;;;;;;0.70;0.50;;;14.30;99.90;;;;;;5050699;28;20823;-69
2021/11/06 09:49:37;;;;;;;0.80;0.80;;;14.10;99.90;;;;;;5051174;28;20222;-69
2021/11/06 09:52:03;;;;;;;0.80;0.70;;;13.80;99.90;;;;;;5049982;28;20413;-69
2021/11/06 09:54:29;;;;;;;0.80;0.60;;;13.70;99.90;;;;;;5051328;28;20414;-69
2021/11/06 09:56:55;;;;;;;0.70;0.60;;;13.90;99.90;;;;;;5050297;28;20491;-69
2021/11/06 09:59:20;;;;;;;1.73;1.23;;;13.80;99.90;;;;;;5050930;28;20414;-70
2021/11/06 10:01:46;;;;;;;2.60;2.40;;;14.40;99.90;;;;;;5052310;28;20573;-69
2021/11/06 10:04:11;;;;;;;0.80;0.60;;;14.80;99.90;;;;;;5051181;28;20714;-69
2021/11/06 10:06:44;;;;;;;1.13;0.70;;;14.80;99.90;;;;;;5050728;28;20182;-69
2021/11/06 10:09:11;;;;;;;0.70;0.60;;;15.40;99.90;;;;;;5049710;28;20199;-69
2021/11/06 10:11:42;;;;;;;0.90;0.60;;;16.20;99.90;;;;;;5050975;28;20426;-69
2021/11/06 10:14:09;;;;;;;0.70;0.60;;;17.50;99.90;;;;;;5063642;28;20437;-69
2021/11/06 10:16:37;;;;;;;0.80;0.63;;;18.60;99.90;;;;;;5048870;28;20428;-69
2021/11/06 10:19:18;;;;;;;1.13;1.00;;;18.80;99.90;;;;;;5051213;28;20810;-70
2021/11/06 10:22:10;;;;;;;0.70;0.60;;;18.70;99.70;;;;;;5053789;28;20417;-69
2021/11/06 10:24:43;;;;;;;0.90;0.60;;;18.40;97.70;;;;;;5054388;28;20417;-70
2021/11/06 10:27:24;;;;;;;0.80;0.50;;;19.00;97.60;;;;;;5054043;28;20433;-70
2021/11/06 10:30:24;;;;;;;1.37;0.70;;;19.00;96.80;;;;;;5053058;28;20457;-70
2021/11/06 10:32:58;;;;;;;0.70;0.50;;;19.20;95.20;;;;;;5039835;28;20417;-70
2021/11/06 10:35:25;;;;;;;0.80;0.60;;;20.30;93.90;;;;;;5053976;28;20915;-70
2021/11/06 10:38:01;;;;;;;0.70;0.50;;;20.70;90.20;;;;;;5053748;28;20460;-69
2021/11/06 10:40:30;;;;;;;0.80;0.60;;;21.20;90.70;;;;;;5054342;28;20971;-70
2021/11/06 10:43:04;;;;;;;1.13;1.03;;;21.40;85.20;;;;;;5054064;28;20914;-70
2021/11/06 10:45:33;;;;;;;0.70;0.50;;;21.40;84.40;;;;;;5053726;28;20843;-70
2021/11/06 10:48:10;;;;;;;1.07;0.80;;;21.00;81.50;;;;;;5054071;28;20440;-70
2021/11/06 10:50:42;;;;;;;1.10;1.00;;;20.80;80.60;;;;;;5052543;28;20853;-70
2021/11/06 10:53:09;;;;;;;0.70;0.50;;;20.30;82.40;;;;;;5053648;28;20467;-70
2021/11/06 10:55:40;;;;;;;0.83;0.83;;;20.60;82.60;;;;;;5053646;28;20957;-70
2021/11/06 10:58:24;;;;;;;0.80;0.60;;;20.10;83.40;;;;;;5053064;28;20976;-70
2021/11/06 11:00:56;;;;;;;0.80;0.60;;;20.80;83.90;;;;;;5053532;28;20987;-70
2021/11/06 11:03:22;;;;;;;0.80;0.67;;;21.30;83.00;;;;;;5053698;28;20413;-70
2021/11/06 11:05:48;;;;;;;0.80;0.70;;;21.40;80.00;;;;;;5053318;28;20410;-70
2021/11/06 11:08:13;;;;;;;0.70;0.60;;;20.60;77.90;;;;;;5053563;28;20970;-69
2021/11/06 11:10:40;;;;;;;0.80;0.60;;;21.70;81.30;;;;;;5053503;28;20163;-70
2021/11/06 11:13:11;;;;;;;1.00;0.80;;;22.40;77.10;;;;;;5052639;28;20593;-70
2021/11/06 11:15:43;;;;;;;0.80;0.60;;;23.00;73.00;;;;;;5052968;28;20436;-70
2021/11/06 11:18:31;;;;;;;0.80;0.70;;;23.10;73.40;;;;;;5050327;28;20886;-71
2021/11/06 11:21:17;;;;;;;0.80;0.60;;;22.30;67.40;;;;;;5053157;28;20440;-70
2021/11/06 11:23:58;;;;;;;0.77;0.70;;;22.30;68.80;;;;;;5055614;28;20794;-70
2021/11/06 11:26:27;;;;;;;0.80;0.60;;;22.60;71.70;;;;;;5052930;28;20424;-70
2021/11/06 11:28:53;;;;;;;1.33;1.17;;;22.50;68.30;;;;;;5052800;28;20457;-70
2021/11/06 11:31:23;;;;;;;1.00;0.60;;;21.40;71.30;;;;;;5052447;28;20424;-70
2021/11/06 11:33:49;;;;;;;0.73;0.60;;;19.80;72.20;;;;;;5053323;28;20933;-69
2021/11/06 11:36:21;;;;;;;0.90;0.80;;;18.70;76.70;;;;;;5051944;28;20811;-70
2021/11/06 11:38:48;;;;;;;0.87;0.70;;;18.60;82.20;;;;;;5053276;28;20987;-70
2021/11/06 11:41:32;;;;;;;1.20;1.10;;;18.60;82.40;;;;;;5052856;28;20414;-70
2021/11/06 11:44:26;;;;;;;0.80;0.60;;;18.40;86.70;;;;;;5053226;28;21063;-70
2021/11/06 11:47:19;;;;;;;0.80;0.60;;;19.70;87.00;;;;;;4993799;28;20432;-70
2021/11/06 11:49:49;;;;;;;0.80;0.60;;;20.10;80.20;;;;;;5052496;28;20500;-70
2021/11/06 11:52:35;;;;;;;1.17;1.07;;;21.30;79.10;;;;;;5052459;28;20508;-69
2021/11/06 11:55:18;;;;;;;1.10;0.77;;;22.60;74.80;;;;;;5052731;28;20421;-70
2021/11/06 11:58:02;;;;;;;1.27;0.70;;;23.60;70.00;;;;;;5051296;28;20556;-70
2021/11/06 12:00:38;;;;;;;1.10;0.90;;;23.20;66.80;;;;;;5050766;28;20500;-70
2021/11/06 12:03:05;;;;;;;1.03;0.90;;;23.80;65.00;;;;;;5050554;28;20778;-70
2021/11/06 12:05:45;;;;;;;0.97;0.70;;;23.40;64.10;;;;;;5051536;28;20441;-70
2021/11/06 12:08:10;;;;;;;0.73;0.50;;;23.10;65.10;;;;;;5049436;28;20448;-71
2021/11/06 12:10:37;;;;;;;0.70;0.60;;;23.80;64.60;;;;;;5052183;28;20410;-70
2021/11/06 12:13:04;;;;;;;2.07;0.70;;;24.20;64.20;;;;;;5051134;28;20174;-70
2021/11/06 12:15:54;;;;;;;0.80;0.60;;;24.30;60.00;;;;;;5051966;28;20412;-70
2021/11/06 12:18:35;;;;;;;0.80;0.60;;;23.50;59.20;;;;;;5049145;28;20480;-70
2021/11/06 12:21:21;;;;;;;1.50;0.70;;;23.10;61.00;;;;;;5052079;28;20493;-70
2021/11/06 12:23:51;;;;;;;0.80;0.50;;;22.40;62.20;;;;;;5067586;28;20506;-70
2021/11/06 12:26:31;;;;;;;0.80;0.67;;;22.00;62.70;;;;;;5050543;28;20491;-70
2021/11/06 12:29:06;;;;;;;0.77;0.53;;;21.10;62.20;;;;;;5051723;28;20457;-69
2021/11/06 12:31:34;;;;;;;0.70;0.60;;;20.60;63.30;;;;;;5051797;28;20417;-70
2021/11/06 12:34:01;;;;;;;0.80;0.60;;;21.70;67.60;;;;;;5040926;28;20424;-70
2021/11/06 12:36:30;;;;;;;0.73;0.60;;;22.40;63.80;;;;;;5065456;28;20418;-70
2021/11/06 12:39:01;;;;;;;0.80;0.60;;;22.10;61.70;;;;;;5051417;28;20465;-70
2021/11/06 12:41:34;;;;;;;0.70;0.50;;;22.70;61.00;;;;;;5052294;28;20416;-70
2021/11/06 12:44:02;;;;;;;0.70;0.60;;;22.40;59.90;;;;;;5050362;28;20462;-70
2021/11/06 12:46:31;;;;;;;0.70;0.50;;;22.80;60.20;;;;;;5051754;28;20413;-69
2021/11/06 12:49:00;;;;;;;0.80;0.60;;;23.10;58.50;;;;;;5051792;28;21208;-69
2021/11/06 12:51:31;;;;;;;1.10;0.70;;;23.50;59.70;;;;;;5057909;28;21223;-70
2021/11/06 12:54:01;;;;;;;0.77;0.50;;;23.80;58.70;;;;;;5051246;28;20413;-70